Time;durP1;ratioP1;P1;durP2;ratioP2;P2;SDS_P1;SDS_P2;PMS_P1;PMS_P2;Temp;Humidity;BMP_temperature;BMP_pressure;BME280_temperature;BME280_humidity;BME280_pressure;Samples;Min_cycle;Max_cycle;Signal;HPM_P1;HPM_P2
2022/05/09 00:02:00;;;;;;;4.50;1.67;;;26.60;96.00;;;;;;4988486;28;20033;-45
2022/05/09 00:04:26;;;;;;;4.20;1.80;;;26.60;96.00;;;;;;4988775;28;20325;-47
2022/05/09 00:06:53;;;;;;;4.20;1.98;;;26.60;96.10;;;;;;4988515;28;20084;-43
2022/05/09 00:09:20;;;;;;;8.35;2.13;;;26.70;96.20;;;;;;4988528;28;20027;-47
2022/05/09 00:11:46;;;;;;;11.13;2.63;;;26.70;96.20;;;;;;4988221;28;20267;-47
2022/05/09 00:14:13;;;;;;;5.65;2.22;;;26.70;96.10;;;;;;4988735;28;20041;-42
2022/05/09 00:16:40;;;;;;;9.40;3.03;;;26.70;96.10;;;;;;4988433;28;20098;-47
2022/05/09 00:19:09;;;;;;;12.10;2.70;;;26.70;96.10;;;;;;4988508;28;20287;-46
2022/05/09 00:21:39;;;;;;;5.93;2.08;;;26.70;96.00;;;;;;4988497;28;20034;-42
2022/05/09 00:24:14;;;;;;;2.15;1.00;;;26.70;96.00;;;;;;4987547;28;20039;-41
2022/05/09 00:26:43;;;;;;;4.78;1.65;;;26.70;95.90;;;;;;4987996;28;20039;-46
2022/05/09 00:29:11;;;;;;;4.72;0.90;;;26.70;96.00;;;;;;4988423;28;20058;-41
2022/05/09 00:31:39;;;;;;;4.38;0.90;;;26.70;96.00;;;;;;4987888;28;20250;-47
2022/05/09 00:34:07;;;;;;;2.58;0.90;;;26.70;96.00;;;;;;4988150;28;20046;-45
2022/05/09 00:36:34;;;;;;;4.32;0.82;;;26.70;96.20;;;;;;4987885;28;20314;-49
2022/05/09 00:39:02;;;;;;;5.93;1.23;;;26.70;96.20;;;;;;4987704;28;20022;-54
2022/05/09 00:41:31;;;;;;;6.25;0.80;;;26.70;96.20;;;;;;4988140;28;20038;-45
2022/05/09 00:44:00;;;;;;;4.68;0.70;;;26.70;96.10;;;;;;4988246;28;20073;-53
2022/05/09 00:46:29;;;;;;;6.50;1.10;;;26.70;96.10;;;;;;4987625;28;20027;-43
2022/05/09 00:49:14;;;;;;;3.58;0.90;;;26.70;96.10;;;;;;4988216;28;20026;-42
2022/05/09 00:51:43;;;;;;;5.32;1.38;;;26.70;96.00;;;;;;4987554;28;20039;-46
2022/05/09 00:54:10;;;;;;;5.70;1.00;;;26.70;96.00;;;;;;4986450;28;20035;-44
2022/05/09 00:56:43;;;;;;;3.65;0.98;;;26.70;96.00;;;;;;4987665;28;20019;-50
2022/05/09 00:59:14;;;;;;;2.90;0.90;;;26.70;95.90;;;;;;4987943;28;20031;-48
2022/05/09 01:01:41;;;;;;;3.35;0.80;;;26.70;95.80;;;;;;4987556;28;20030;-42
2022/05/09 01:04:15;;;;;;;3.45;0.73;;;26.70;95.90;;;;;;4987476;28;20365;-44
2022/05/09 01:06:42;;;;;;;3.25;0.60;;;26.70;95.80;;;;;;4987375;28;20058;-44
2022/05/09 01:09:12;;;;;;;4.78;0.70;;;26.70;95.80;;;;;;4987064;28;20034;-53
2022/05/09 01:11:42;;;;;;;2.83;0.88;;;26.70;95.80;;;;;;4987471;28;20065;-51
2022/05/09 01:14:22;;;;;;;4.32;0.80;;;26.70;95.80;;;;;;4987576;28;20035;-46
2022/05/09 01:16:49;;;;;;;4.93;0.75;;;26.70;95.70;;;;;;4987000;28;20146;-47
2022/05/09 01:19:36;;;;;;;3.13;0.95;;;26.70;95.70;;;;;;4987503;28;20370;-47
2022/05/09 01:22:26;;;;;;;3.65;0.52;;;26.60;95.70;;;;;;4987020;28;20223;-45
2022/05/09 01:24:57;;;;;;;3.03;0.80;;;26.60;95.50;;;;;;4986548;28;20058;-48
2022/05/09 01:27:23;;;;;;;1.63;0.65;;;26.60;95.60;;;;;;4986739;28;20149;-55
2022/05/09 01:30:09;;;;;;;1.80;0.70;;;26.60;95.60;;;;;;4986921;28;20046;-43
2022/05/09 01:32:49;;;;;;;2.10;0.80;;;26.60;95.60;;;;;;4987141;28;20023;-42
2022/05/09 01:35:51;;;;;;;4.72;0.80;;;26.60;95.60;;;;;;4986771;28;20035;-47
2022/05/09 01:38:29;;;;;;;2.10;0.73;;;26.60;95.60;;;;;;4948475;28;20199;-44
2022/05/09 01:40:56;;;;;;;1.17;0.63;;;26.60;95.60;;;;;;4986845;28;20102;-48
2022/05/09 01:43:51;;;;;;;2.70;0.77;;;26.60;95.50;;;;;;4986752;28;20184;-48
2022/05/09 01:46:22;;;;;;;4.55;0.80;;;26.60;95.60;;;;;;4984111;28;20187;-48
2022/05/09 01:51:36;;;;;;;3.58;1.23;;;26.60;95.70;;;;;;4986277;28;20062;-43
2022/05/09 01:54:03;;;;;;;5.38;1.40;;;26.60;95.70;;;;;;4986965;28;20089;-45
2022/05/09 01:56:32;;;;;;;5.97;1.52;;;26.60;95.70;;;;;;4986357;28;20303;-48
2022/05/09 01:59:00;;;;;;;4.97;1.70;;;26.60;95.70;;;;;;4986171;28;20094;-44
2022/05/09 02:01:34;;;;;;;3.80;0.95;;;26.60;95.70;;;;;;4986624;28;20035;-42
2022/05/09 02:04:00;;;;;;;4.65;1.15;;;26.60;95.60;;;;;;4986682;28;20330;-42
2022/05/09 02:06:27;;;;;;;3.97;0.95;;;26.60;95.60;;;;;;4985757;28;20386;-47
2022/05/09 02:08:54;;;;;;;3.33;0.80;;;26.60;95.60;;;;;;4986228;28;20315;-46
2022/05/09 02:11:20;;;;;;;8.18;1.20;;;26.60;95.50;;;;;;4986143;28;20318;-48
2022/05/09 02:13:47;;;;;;;1.92;0.63;;;26.50;95.50;;;;;;4986198;28;20292;-45
2022/05/09 02:16:14;;;;;;;3.70;0.77;;;26.50;95.50;;;;;;4986361;28;20038;-47
2022/05/09 02:18:41;;;;;;;2.80;0.60;;;26.50;95.50;;;;;;4985996;28;20030;-48
2022/05/09 02:21:07;;;;;;;2.78;0.70;;;26.50;95.60;;;;;;4985790;28;20030;-52
2022/05/09 02:23:35;;;;;;;0.85;0.55;;;26.50;95.60;;;;;;4986385;28;20078;-56
2022/05/09 02:26:02;;;;;;;5.05;0.77;;;26.50;95.50;;;;;;4985995;28;20114;-45
2022/05/09 02:28:29;;;;;;;4.32;0.70;;;26.50;95.50;;;;;;4986094;28;20031;-48
2022/05/09 02:30:56;;;;;;;1.83;0.57;;;26.40;95.50;;;;;;4985828;28;20039;-48
2022/05/09 02:33:23;;;;;;;3.58;0.55;;;26.40;95.70;;;;;;4986047;28;20018;-48
2022/05/09 02:35:49;;;;;;;1.42;0.50;;;26.40;95.60;;;;;;4985764;28;20262;-46
2022/05/09 02:38:17;;;;;;;4.18;0.75;;;26.40;95.60;;;;;;4985657;28;20023;-45
2022/05/09 02:40:44;;;;;;;2.65;0.95;;;26.40;95.60;;;;;;4985751;28;20041;-40
2022/05/09 02:43:10;;;;;;;3.17;0.65;;;26.40;95.60;;;;;;4985568;28;20306;-44
2022/05/09 02:45:38;;;;;;;2.22;0.50;;;26.40;95.70;;;;;;4985529;28;20026;-42
2022/05/09 02:48:05;;;;;;;2.22;0.50;;;26.40;95.60;;;;;;4985435;28;20054;-44
2022/05/09 02:50:32;;;;;;;4.25;0.80;;;26.40;95.70;;;;;;4985548;28;20087;-41
2022/05/09 02:52:58;;;;;;;3.03;0.50;;;26.40;95.60;;;;;;4985070;28;20030;-50
2022/05/09 02:55:25;;;;;;;2.58;0.60;;;26.40;95.60;;;;;;4985345;28;20042;-47
2022/05/09 02:57:52;;;;;;;2.92;0.60;;;26.40;95.60;;;;;;4985531;28;20242;-53
2022/05/09 03:00:25;;;;;;;2.53;0.82;;;26.30;95.60;;;;;;4985194;28;20074;-42
2022/05/09 03:05:40;;;;;;;3.67;0.60;;;26.30;95.60;;;;;;4985244;28;20063;-52
2022/05/09 03:08:09;;;;;;;2.75;0.75;;;26.30;95.60;;;;;;4985436;28;20252;-46
2022/05/09 03:10:37;;;;;;;2.55;0.70;;;26.30;95.60;;;;;;4985108;28;20043;-43
2022/05/09 03:13:05;;;;;;;4.85;0.70;;;26.30;95.60;;;;;;4985362;28;20027;-47
2022/05/09 03:15:35;;;;;;;2.47;0.60;;;26.30;95.70;;;;;;4985261;28;20090;-42
2022/05/09 03:18:03;;;;;;;3.67;0.77;;;26.30;95.60;;;;;;4984517;28;20030;-42
2022/05/09 03:20:30;;;;;;;2.60;0.70;;;26.30;95.70;;;;;;4984923;28;20092;-45
2022/05/09 03:22:57;;;;;;;2.20;0.70;;;26.30;95.60;;;;;;4984927;28;20235;-48
2022/05/09 03:25:24;;;;;;;3.45;0.90;;;26.30;95.70;;;;;;4984666;28;20055;-48
2022/05/09 03:27:51;;;;;;;2.65;1.00;;;26.30;95.80;;;;;;4985247;28;20026;-48
2022/05/09 03:30:18;;;;;;;2.22;1.08;;;26.30;95.80;;;;;;4985081;28;20038;-47
2022/05/09 03:32:47;;;;;;;6.18;1.38;;;26.20;95.80;;;;;;4984962;28;20027;-44
2022/05/09 03:35:14;;;;;;;3.30;1.10;;;26.30;95.80;;;;;;4984819;28;20034;-44
2022/05/09 03:37:41;;;;;;;4.63;1.20;;;26.30;95.70;;;;;;4984783;28;20034;-43
2022/05/09 03:40:09;;;;;;;2.92;1.00;;;26.30;95.70;;;;;;4984802;28;20214;-51
2022/05/09 03:42:35;;;;;;;4.90;1.35;;;26.30;95.70;;;;;;4984885;28;20053;-44
2022/05/09 03:45:02;;;;;;;6.07;1.08;;;26.20;95.70;;;;;;4984774;28;20069;-47
2022/05/09 03:47:29;;;;;;;2.30;0.77;;;26.30;95.70;;;;;;4984730;28;20247;-55
2022/05/09 03:49:57;;;;;;;3.47;1.15;;;26.30;95.70;;;;;;4984824;28;20030;-45
2022/05/09 03:52:24;;;;;;;3.55;1.05;;;26.20;95.70;;;;;;4984724;28;20053;-43
2022/05/09 03:54:51;;;;;;;2.38;0.80;;;26.20;95.70;;;;;;4984601;28;20038;-48
2022/05/09 03:57:18;;;;;;;2.75;0.70;;;26.20;95.70;;;;;;4984717;28;20086;-53
2022/05/09 03:59:44;;;;;;;2.42;0.95;;;26.20;95.70;;;;;;4984886;28;20031;-49
2022/05/09 04:02:11;;;;;;;4.03;0.85;;;26.20;95.70;;;;;;4984511;28;20065;-48
2022/05/09 04:04:37;;;;;;;2.15;0.73;;;26.20;95.70;;;;;;4984659;28;20081;-49
2022/05/09 04:07:04;;;;;;;1.63;0.90;;;26.20;95.70;;;;;;4984711;28;20043;-50
2022/05/09 04:09:31;;;;;;;1.27;0.68;;;26.20;95.80;;;;;;4985001;28;20030;-45
2022/05/09 04:11:58;;;;;;;1.45;0.60;;;26.20;95.70;;;;;;4984667;28;20235;-52
2022/05/09 04:17:10;;;;;;;2.97;0.70;;;26.20;95.70;;;;;;4984563;28;20058;-43
2022/05/09 04:19:38;;;;;;;2.83;1.30;;;26.20;95.70;;;;;;4984605;28;20063;-48
2022/05/09 04:22:05;;;;;;;3.45;1.27;;;26.20;95.70;;;;;;4984477;28;20210;-49
2022/05/09 04:24:31;;;;;;;4.25;1.20;;;26.10;95.70;;;;;;4984479;28;20059;-47
2022/05/09 04:26:59;;;;;;;2.90;1.05;;;26.20;95.70;;;;;;4984497;28;20352;-45
2022/05/09 04:29:27;;;;;;;3.22;0.90;;;26.20;95.70;;;;;;4986951;28;20062;-53
2022/05/09 04:31:54;;;;;;;7.75;1.10;;;26.20;95.70;;;;;;4988307;28;20086;-51
2022/05/09 04:34:21;;;;;;;3.10;1.10;;;26.10;95.70;;;;;;4988414;28;20031;-50
2022/05/09 04:36:47;;;;;;;5.60;0.90;;;26.10;95.70;;;;;;4987948;28;20035;-43
2022/05/09 04:39:15;;;;;;;3.03;0.70;;;26.20;95.80;;;;;;4988282;28;20029;-42
2022/05/09 04:41:42;;;;;;;2.45;0.57;;;26.10;95.80;;;;;;4988000;28;20031;-49
2022/05/09 04:44:09;;;;;;;3.70;0.60;;;26.10;95.80;;;;;;4987824;28;20018;-46
2022/05/09 04:46:36;;;;;;;2.80;0.60;;;26.10;95.90;;;;;;4987765;28;20031;-47
2022/05/09 04:49:02;;;;;;;1.38;0.50;;;26.10;95.90;;;;;;4988094;28;20294;-43
2022/05/09 04:51:30;;;;;;;3.17;0.55;;;26.10;95.90;;;;;;4987770;28;20023;-51
2022/05/09 04:53:57;;;;;;;1.80;0.47;;;26.10;95.80;;;;;;4987900;28;20302;-50
2022/05/09 04:56:24;;;;;;;2.30;0.60;;;26.10;95.80;;;;;;4987680;28;20026;-46
2022/05/09 04:58:50;;;;;;;3.47;0.57;;;26.10;95.90;;;;;;4988020;28;20083;-51
2022/05/09 05:01:17;;;;;;;1.85;0.40;;;26.10;95.80;;;;;;4987373;28;20034;-47
2022/05/09 05:03:43;;;;;;;3.65;0.50;;;26.00;95.90;;;;;;4988059;28;20239;-45
2022/05/09 05:06:10;;;;;;;2.55;0.52;;;26.10;95.90;;;;;;4987507;28;20074;-48
2022/05/09 05:08:36;;;;;;;2.28;0.40;;;26.00;95.90;;;;;;4987619;28;20029;-45
2022/05/09 05:11:04;;;;;;;2.28;0.50;;;26.00;95.80;;;;;;4987491;28;20038;-46
2022/05/09 05:13:33;;;;;;;1.42;0.40;;;26.00;95.80;;;;;;4987556;28;20026;-42
2022/05/09 05:15:59;;;;;;;3.30;0.40;;;26.00;95.90;;;;;;4987154;28;20272;-47
2022/05/09 05:18:28;;;;;;;2.67;0.55;;;26.00;95.90;;;;;;4987539;28;20031;-48
2022/05/09 05:20:55;;;;;;;5.70;0.40;;;26.00;95.90;;;;;;4987305;28;20019;-44
2022/05/09 05:23:22;;;;;;;1.98;0.40;;;26.00;95.80;;;;;;4986901;28;20074;-45
2022/05/09 05:25:49;;;;;;;1.73;0.30;;;26.00;95.80;;;;;;4987090;28;20271;-55
2022/05/09 05:28:17;;;;;;;1.17;0.20;;;26.00;95.80;;;;;;4987275;28;20381;-45
2022/05/09 05:30:44;;;;;;;0.93;0.20;;;26.00;95.70;;;;;;4986874;28;20042;-48
2022/05/09 05:33:11;;;;;;;2.83;0.30;;;25.90;95.70;;;;;;4986937;28;20118;-47
2022/05/09 05:35:37;;;;;;;2.47;0.30;;;25.90;95.60;;;;;;4986844;28;20045;-41
2022/05/09 05:38:04;;;;;;;3.65;0.35;;;25.90;95.60;;;;;;4987052;28;20042;-50
2022/05/09 05:40:31;;;;;;;2.03;0.28;;;25.90;95.60;;;;;;4986464;28;20050;-48
2022/05/09 05:42:57;;;;;;;4.95;0.50;;;25.90;95.60;;;;;;4986907;28;20053;-45
2022/05/09 05:45:28;;;;;;;0.75;0.10;;;25.90;95.60;;;;;;4986592;28;20470;-49
2022/05/09 05:47:54;;;;;;;1.67;0.30;;;25.90;95.60;;;;;;4986780;28;20113;-46
2022/05/09 05:50:23;;;;;;;2.08;0.20;;;25.90;95.50;;;;;;4986725;28;20092;-55
2022/05/09 05:52:50;;;;;;;1.15;0.20;;;25.90;95.50;;;;;;4986576;28;20102;-48
2022/05/09 05:55:19;;;;;;;2.55;0.30;;;25.90;95.50;;;;;;4986453;28;20039;-51
2022/05/09 05:57:46;;;;;;;2.13;0.15;;;25.90;95.50;;;;;;4986554;28;20090;-46
2022/05/09 06:00:18;;;;;;;2.17;0.20;;;25.90;95.40;;;;;;4986272;28;20026;-50
2022/05/09 06:02:46;;;;;;;1.05;0.17;;;25.90;95.40;;;;;;4986480;28;20274;-45
2022/05/09 06:05:15;;;;;;;1.23;0.30;;;25.90;95.40;;;;;;4986384;28;20053;-50
2022/05/09 06:07:42;;;;;;;1.88;0.20;;;25.90;95.50;;;;;;4986227;28;20069;-42
2022/05/09 06:10:11;;;;;;;2.35;0.30;;;25.90;95.40;;;;;;4986292;28;20035;-51
2022/05/09 06:12:38;;;;;;;3.45;0.30;;;25.90;95.50;;;;;;4986286;28;20027;-45
2022/05/09 06:17:51;;;;;;;3.03;0.15;;;25.90;95.40;;;;;;4986352;28;20069;-44
2022/05/09 06:20:18;;;;;;;1.65;0.20;;;25.90;95.40;;;;;;4985973;28;20038;-43
2022/05/09 06:22:45;;;;;;;3.35;0.20;;;25.90;95.40;;;;;;4986181;28;20350;-47
2022/05/09 06:25:16;;;;;;;1.55;0.10;;;25.90;95.30;;;;;;4985866;28;20299;-46
2022/05/09 06:27:42;;;;;;;0.88;0.15;;;25.90;95.30;;;;;;4986233;28;20034;-42
2022/05/09 06:30:12;;;;;;;2.72;0.25;;;25.90;95.30;;;;;;4985898;28;20027;-42
2022/05/09 06:32:39;;;;;;;2.90;0.30;;;25.90;95.30;;;;;;4985823;28;20081;-46
2022/05/09 06:35:09;;;;;;;1.60;0.10;;;25.90;95.30;;;;;;4985704;28;20037;-42
2022/05/09 06:37:38;;;;;;;3.70;0.40;;;25.90;95.30;;;;;;4986016;28;20038;-44
2022/05/09 06:40:07;;;;;;;1.13;0.30;;;25.90;95.40;;;;;;4985705;28;20311;-47
2022/05/09 06:42:34;;;;;;;4.97;0.40;;;25.90;95.30;;;;;;4985897;28;20074;-46
2022/05/09 06:45:00;;;;;;;1.65;0.20;;;25.90;95.30;;;;;;4985754;28;20035;-46
2022/05/09 06:47:27;;;;;;;2.05;0.35;;;25.90;95.30;;;;;;4985633;28;20019;-44
2022/05/09 06:49:57;;;;;;;2.60;0.30;;;25.90;95.30;;;;;;4985760;28;20035;-51
2022/05/09 06:52:24;;;;;;;4.35;0.50;;;25.90;95.30;;;;;;4984813;28;20035;-46
2022/05/09 06:54:51;;;;;;;4.30;0.30;;;25.80;95.30;;;;;;4985351;28;20153;-46
2022/05/09 06:57:17;;;;;;;0.93;0.20;;;25.90;95.30;;;;;;4985548;28;20038;-45
2022/05/09 06:59:44;;;;;;;1.85;0.22;;;25.80;95.30;;;;;;4985422;28;20094;-47
2022/05/09 07:02:14;;;;;;;4.93;0.40;;;25.90;95.40;;;;;;4985183;28;20027;-47
2022/05/09 07:04:41;;;;;;;2.67;0.20;;;25.80;95.40;;;;;;4985466;28;20031;-50
2022/05/09 07:07:08;;;;;;;1.27;0.13;;;25.80;95.50;;;;;;4985276;28;20031;-50
2022/05/09 07:09:35;;;;;;;2.92;0.25;;;25.80;95.40;;;;;;4985202;28;20327;-46
2022/05/09 07:12:01;;;;;;;3.90;0.30;;;25.80;95.50;;;;;;4985203;28;20326;-43
2022/05/09 07:14:28;;;;;;;2.55;0.30;;;25.80;95.50;;;;;;4985706;28;20035;-46
2022/05/09 07:16:54;;;;;;;1.83;0.30;;;25.80;95.50;;;;;;4985073;28;20027;-43
2022/05/09 07:19:21;;;;;;;3.67;0.28;;;25.80;95.50;;;;;;4985686;28;20046;-42
2022/05/09 07:21:47;;;;;;;1.42;0.17;;;25.80;95.60;;;;;;4985184;28;20031;-46
2022/05/09 07:24:14;;;;;;;4.95;0.40;;;25.80;95.60;;;;;;4985034;28;20114;-46
2022/05/09 07:26:41;;;;;;;1.40;0.20;;;25.80;95.50;;;;;;4985194;28;20279;-49
2022/05/09 07:29:09;;;;;;;6.90;0.50;;;25.80;95.60;;;;;;4985407;28;20097;-47
2022/05/09 07:31:35;;;;;;;9.52;0.70;;;25.80;95.60;;;;;;4984934;28;20107;-47
2022/05/09 07:34:02;;;;;;;2.50;0.32;;;25.80;95.90;;;;;;4985283;28;20089;-50
2022/05/09 07:36:28;;;;;;;4.68;0.47;;;25.80;95.70;;;;;;4985076;28;20370;-42
2022/05/09 07:38:55;;;;;;;3.70;0.50;;;25.80;95.70;;;;;;4985172;28;20058;-43
2022/05/09 07:41:22;;;;;;;1.85;0.32;;;25.80;95.70;;;;;;4985155;28;20321;-44
2022/05/09 07:43:50;;;;;;;2.88;0.28;;;25.70;95.70;;;;;;4985281;28;20049;-41
2022/05/09 07:46:16;;;;;;;2.28;0.40;;;25.70;95.70;;;;;;4984808;28;20067;-42
2022/05/09 07:48:43;;;;;;;2.85;0.55;;;25.70;95.70;;;;;;4985064;28;20230;-45
2022/05/09 07:51:09;;;;;;;2.53;0.50;;;25.70;95.80;;;;;;4984775;28;20035;-41
2022/05/09 07:53:36;;;;;;;1.48;0.40;;;25.70;95.90;;;;;;4984744;28;20034;-40
2022/05/09 07:56:04;;;;;;;6.95;0.65;;;25.70;95.90;;;;;;4984516;28;20053;-42
2022/05/09 07:58:33;;;;;;;3.65;0.63;;;25.70;95.90;;;;;;4985034;28;20035;-47
2022/05/09 08:01:01;;;;;;;3.40;0.40;;;25.70;95.90;;;;;;4984697;28;20025;-44
2022/05/09 08:03:30;;;;;;;2.17;0.38;;;25.70;95.80;;;;;;4985497;28;20077;-48
2022/05/09 08:05:59;;;;;;;4.15;0.90;;;25.70;95.90;;;;;;4988589;28;20023;-43
2022/05/09 08:08:28;;;;;;;2.72;0.40;;;25.70;95.90;;;;;;4988700;28;20263;-41
2022/05/09 08:11:00;;;;;;;3.72;0.70;;;25.70;95.80;;;;;;4988496;28;20379;-46
2022/05/09 08:13:30;;;;;;;2.97;0.65;;;25.70;95.80;;;;;;4988774;28;20030;-44
2022/05/09 08:15:59;;;;;;;2.03;0.32;;;25.70;95.90;;;;;;4988212;28;20046;-46
2022/05/09 08:18:26;;;;;;;7.07;0.47;;;25.70;95.90;;;;;;4988561;28;20015;-43
2022/05/09 08:20:55;;;;;;;2.45;0.35;;;25.70;95.90;;;;;;4988291;28;20085;-42
2022/05/09 08:23:23;;;;;;;5.22;0.47;;;25.70;95.90;;;;;;4988252;28;20322;-50
2022/05/09 08:25:50;;;;;;;3.70;0.50;;;25.60;95.90;;;;;;4988077;28;20353;-51
2022/05/09 08:28:19;;;;;;;4.00;0.50;;;25.60;96.00;;;;;;4988436;28;20038;-46
2022/05/09 08:30:47;;;;;;;3.65;0.43;;;25.60;96.00;;;;;;4988036;28;20022;-43
2022/05/09 08:33:17;;;;;;;3.53;0.43;;;25.60;95.90;;;;;;4988393;28;20105;-44
2022/05/09 08:35:45;;;;;;;3.55;0.60;;;25.70;95.90;;;;;;4987900;28;20023;-40
2022/05/09 08:38:13;;;;;;;4.60;0.60;;;25.60;95.90;;;;;;4987907;28;20038;-47
2022/05/09 08:41:14;;;;;;;2.85;0.50;;;25.60;95.90;;;;;;4987935;28;20378;-51
2022/05/09 08:43:51;;;;;;;6.25;0.60;;;25.60;95.90;;;;;;4987800;28;20025;-42
2022/05/09 08:46:36;;;;;;;3.75;0.43;;;25.60;95.90;;;;;;4987802;28;20226;-47
2022/05/09 08:49:20;;;;;;;6.22;0.55;;;25.60;95.90;;;;;;4988119;28;20210;-46
2022/05/09 08:52:21;;;;;;;4.88;0.80;;;25.60;96.00;;;;;;4987623;28;20397;-44
2022/05/09 08:54:48;;;;;;;8.95;0.80;;;25.60;96.10;;;;;;4987731;28;20047;-50
2022/05/09 08:57:24;;;;;;;10.75;0.82;;;25.60;96.10;;;;;;4987768;28;20018;-45
2022/05/09 09:00:11;;;;;;;3.78;0.50;;;25.60;96.10;;;;;;4987648;28;20038;-45
2022/05/09 09:02:59;;;;;;;4.60;0.55;;;25.60;96.20;;;;;;4987686;28;20030;-44
2022/05/09 09:05:28;;;;;;;8.02;0.60;;;25.60;96.20;;;;;;4987333;28;20039;-47
2022/05/09 09:08:10;;;;;;;7.32;0.60;;;25.60;96.20;;;;;;4987641;28;20034;-49
2022/05/09 09:10:58;;;;;;;6.82;0.85;;;25.70;96.30;;;;;;4987404;28;20034;-59
2022/05/09 09:13:31;;;;;;;5.28;0.55;;;25.60;96.20;;;;;;4987542;28;20327;-56
2022/05/09 09:16:33;;;;;;;3.97;0.40;;;25.60;96.30;;;;;;4986225;28;20219;-54
2022/05/09 09:19:18;;;;;;;4.07;0.50;;;25.60;96.30;;;;;;4987622;28;20085;-48
2022/05/09 09:22:11;;;;;;;3.33;0.50;;;25.60;96.30;;;;;;4987235;28;20345;-49
2022/05/09 09:24:56;;;;;;;3.88;0.30;;;25.60;96.20;;;;;;4987214;28;20055;-42
2022/05/09 09:28:02;;;;;;;3.38;0.40;;;25.60;96.30;;;;;;4986872;28;20034;-49
2022/05/09 09:30:30;;;;;;;4.15;0.50;;;25.60;96.20;;;;;;4974537;28;20051;-44
2022/05/09 09:33:06;;;;;;;6.13;0.60;;;25.60;96.30;;;;;;4987144;28;20050;-44
2022/05/09 09:35:47;;;;;;;4.82;0.50;;;25.60;96.30;;;;;;4987005;28;20035;-46
2022/05/09 09:38:41;;;;;;;6.35;0.75;;;25.60;96.30;;;;;;4986994;28;20322;-45
2022/05/09 09:41:18;;;;;;;8.80;0.80;;;25.60;96.30;;;;;;4986783;28;20030;-48
2022/05/09 09:43:46;;;;;;;5.43;0.63;;;25.60;96.30;;;;;;4987185;28;20035;-47
2022/05/09 09:46:13;;;;;;;4.30;0.73;;;25.60;96.30;;;;;;4986720;28;20023;-47
2022/05/09 09:48:39;;;;;;;5.13;0.43;;;25.60;96.30;;;;;;4986856;28;20031;-45
2022/05/09 09:51:12;;;;;;;4.70;0.80;;;25.60;96.40;;;;;;4986652;28;20038;-46
2022/05/09 09:53:52;;;;;;;6.43;0.68;;;25.60;96.40;;;;;;4986874;28;20098;-42
2022/05/09 09:56:22;;;;;;;4.30;0.50;;;25.60;96.40;;;;;;4986557;28;20034;-44
2022/05/09 09:58:56;;;;;;;6.57;0.70;;;25.60;96.50;;;;;;4987006;28;20034;-47
2022/05/09 10:01:31;;;;;;;4.30;0.60;;;25.60;96.50;;;;;;4986426;28;20283;-45
2022/05/09 10:04:24;;;;;;;5.57;0.65;;;25.60;96.60;;;;;;4986306;28;20034;-48
2022/05/09 10:07:01;;;;;;;5.80;0.60;;;25.60;96.50;;;;;;4986404;28;20042;-53
2022/05/09 10:09:39;;;;;;;2.70;0.60;;;25.60;96.60;;;;;;4986681;28;20034;-50
2022/05/09 10:12:25;;;;;;;6.57;0.90;;;25.60;96.60;;;;;;4986223;28;20038;-47
2022/05/09 10:14:53;;;;;;;6.13;0.77;;;25.60;96.60;;;;;;4986021;28;20026;-47
2022/05/09 10:17:25;;;;;;;4.72;0.88;;;25.60;96.60;;;;;;4986205;28;20034;-47
2022/05/09 10:19:53;;;;;;;9.67;1.10;;;25.60;96.70;;;;;;4986227;28;20030;-59
2022/05/09 10:25:37;;;;;;;3.97;0.80;;;25.60;96.60;;;;;;4978160;28;20132;-46
2022/05/09 10:28:10;;;;;;;3.95;0.65;;;25.60;96.50;;;;;;4985949;28;20031;-53
2022/05/09 10:30:56;;;;;;;7.88;0.60;;;25.60;96.60;;;;;;4985754;28;20042;-51
2022/05/09 10:33:38;;;;;;;6.13;0.90;;;25.60;96.60;;;;;;4986164;28;20037;-47
2022/05/09 10:36:08;;;;;;;;;;;25.60;96.60;;;;;;4986041;28;20051;-48
2022/05/09 10:38:43;;;;;;;4.68;0.55;;;25.60;96.50;;;;;;4985929;28;19906;-44
2022/05/09 10:41:46;;;;;;;3.70;0.57;;;25.60;96.60;;;;;;4985697;28;20042;-43
2022/05/09 10:44:16;;;;;;;;;;;25.60;96.60;;;;;;4986374;28;20031;-45
2022/05/09 10:46:54;;;;;;;2.33;0.60;;;25.60;96.50;;;;;;4985600;28;19934;-52
2022/05/09 10:49:29;;;;;;;6.20;0.80;;;25.60;96.60;;;;;;4985457;28;20030;-46
2022/05/09 10:52:14;;;;;;;1.75;0.90;;;25.60;96.50;;;;;;4985450;28;20361;-53
2022/05/09 10:54:48;;;;;;;17.48;1.88;;;25.50;96.50;;;;;;4985524;28;20039;-54
2022/05/09 10:57:20;;;;;;;11.25;1.65;;;25.50;96.40;;;;;;4985526;28;20061;-46
2022/05/09 10:59:49;;;;;;;11.70;1.52;;;25.50;96.50;;;;;;4985638;28;20035;-49
2022/05/09 11:02:28;;;;;;;8.95;1.27;;;25.50;96.60;;;;;;4985257;28;20042;-45
2022/05/09 11:04:56;;;;;;;9.07;1.23;;;25.50;96.60;;;;;;4984460;28;20039;-47
2022/05/09 11:07:29;;;;;;;6.80;0.95;;;25.50;96.50;;;;;;4984151;28;20099;-45
2022/05/09 11:10:23;;;;;;;8.60;1.00;;;25.50;96.50;;;;;;4983548;28;20350;-48
2022/05/09 11:13:15;;;;;;;7.72;1.10;;;25.50;96.50;;;;;;4983654;28;20042;-45
2022/05/09 11:15:58;;;;;;;7.60;1.27;;;25.60;96.60;;;;;;4979487;28;20103;-46
2022/05/09 11:18:24;;;;;;;;;;;25.50;96.60;;;;;;4984288;28;20027;-46
2022/05/09 11:21:16;;;;;;;5.75;1.10;;;25.50;96.60;;;;;;4983669;28;20225;-51
2022/05/09 11:24:28;;;;;;;3.90;1.20;;;25.50;96.60;;;;;;4985028;28;20035;-44
2022/05/09 11:27:25;;;;;;;12.07;1.98;;;25.50;96.60;;;;;;4972461;28;20042;-44
2022/05/09 11:30:04;;;;;;;6.20;2.55;;;25.50;96.60;;;;;;4985006;28;20342;-46
2022/05/09 11:32:41;;;;;;;7.07;2.90;;;25.50;96.60;;;;;;4984959;28;20026;-48
2022/05/09 11:35:09;;;;;;;5.85;2.03;;;25.50;96.70;;;;;;4985085;28;20034;-45
2022/05/09 11:37:38;;;;;;;4.85;1.67;;;25.50;96.70;;;;;;4985046;28;20027;-44
2022/05/09 11:40:14;;;;;;;8.13;1.83;;;25.50;96.70;;;;;;4984439;28;20090;-48
2022/05/09 11:46:05;;;;;;;6.68;1.75;;;25.50;96.70;;;;;;4984969;28;20095;-53
2022/05/09 11:48:50;;;;;;;3.83;1.45;;;25.50;96.70;;;;;;4985030;28;20057;-45
2022/05/09 11:51:40;;;;;;;3.58;1.30;;;25.50;96.90;;;;;;4984889;28;20023;-41
2022/05/09 11:54:12;;;;;;;4.85;1.40;;;25.60;96.80;;;;;;4972183;28;20041;-43
2022/05/09 11:56:44;;;;;;;2.47;1.20;;;25.50;96.80;;;;;;4984924;28;20086;-50
2022/05/09 11:59:26;;;;;;;2.88;1.10;;;25.50;96.80;;;;;;4984970;28;20026;-46
2022/05/09 12:01:55;;;;;;;5.78;1.13;;;25.60;96.80;;;;;;4984775;28;20019;-49
2022/05/09 12:04:42;;;;;;;3.97;1.20;;;25.50;96.80;;;;;;4984960;28;20098;-43
2022/05/09 12:07:27;;;;;;;2.58;0.80;;;25.50;96.90;;;;;;4984677;28;20022;-45
2022/05/09 12:10:05;;;;;;;3.65;1.00;;;25.50;96.90;;;;;;4984591;28;20094;-50
2022/05/09 12:12:40;;;;;;;3.28;0.60;;;25.60;96.90;;;;;;4984602;28;20027;-48
2022/05/09 12:15:09;;;;;;;3.00;1.10;;;25.50;96.80;;;;;;4984489;28;20034;-45
2022/05/09 12:17:41;;;;;;;2.25;1.00;;;25.50;96.80;;;;;;4984676;28;20058;-50
2022/05/09 12:20:36;;;;;;;2.77;0.70;;;25.60;96.90;;;;;;4984542;28;20054;-49
2022/05/09 12:23:11;;;;;;;3.53;1.08;;;25.60;96.90;;;;;;4984598;28;20362;-43
2022/05/09 12:25:44;;;;;;;1.40;0.90;;;25.50;96.90;;;;;;4984456;28;20089;-44
2022/05/09 12:28:16;;;;;;;2.25;0.80;;;25.60;96.90;;;;;;4984775;28;20295;-50
2022/05/09 12:31:04;;;;;;;2.25;1.00;;;25.60;96.90;;;;;;4984359;28;20043;-44
2022/05/09 12:33:47;;;;;;;1.10;0.70;;;25.60;96.90;;;;;;4984612;28;20054;-44
2022/05/09 12:36:18;;;;;;;2.90;0.50;;;25.60;96.90;;;;;;4984323;28;20039;-47
2022/05/09 12:38:49;;;;;;;2.33;0.70;;;25.60;96.90;;;;;;4984434;28;20026;-48
2022/05/09 12:41:23;;;;;;;2.72;0.60;;;25.60;96.90;;;;;;4984255;28;20046;-47
2022/05/09 12:43:51;;;;;;;3.50;0.80;;;25.60;96.90;;;;;;4984642;28;20019;-45
2022/05/09 12:46:28;;;;;;;0.65;0.52;;;25.60;96.90;;;;;;4984131;28;20062;-49
2022/05/09 12:48:58;;;;;;;1.98;0.70;;;25.60;96.90;;;;;;4984232;28;20022;-48
2022/05/09 12:51:26;;;;;;;1.08;0.63;;;25.60;96.90;;;;;;4986189;28;20043;-47
2022/05/09 12:53:53;;;;;;;1.13;0.70;;;25.60;96.90;;;;;;4987982;28;20015;-42
2022/05/09 12:56:23;;;;;;;2.58;1.10;;;25.60;96.90;;;;;;4987699;28;20031;-42
2022/05/09 12:59:05;;;;;;;3.00;0.80;;;25.60;96.90;;;;;;4988059;28;20042;-52
2022/05/09 13:01:33;;;;;;;1.52;0.88;;;25.60;96.90;;;;;;4987736;28;20034;-47
2022/05/09 13:04:02;;;;;;;2.78;1.17;;;25.60;96.90;;;;;;4987925;28;20180;-45
2022/05/09 13:06:38;;;;;;;4.47;2.15;;;25.60;97.00;;;;;;4987223;28;20041;-43
2022/05/09 13:09:20;;;;;;;2.60;1.13;;;25.60;96.90;;;;;;4987801;28;20054;-54
2022/05/09 13:11:51;;;;;;;3.08;1.40;;;25.60;97.00;;;;;;4987298;28;20192;-45
2022/05/09 13:14:44;;;;;;;3.00;1.42;;;25.60;97.00;;;;;;4987758;28;20089;-44
2022/05/09 13:17:30;;;;;;;5.82;1.10;;;25.60;97.10;;;;;;4987272;28;20019;-41
2022/05/09 13:19:57;;;;;;;2.67;1.10;;;25.60;97.10;;;;;;4987177;28;20035;-50
2022/05/09 13:22:35;;;;;;;3.97;1.35;;;25.70;97.20;;;;;;4987268;28;20022;-42
2022/05/09 13:25:15;;;;;;;2.53;1.20;;;25.70;97.20;;;;;;4986976;28;20064;-43
2022/05/09 13:27:49;;;;;;;2.05;1.10;;;25.70;97.20;;;;;;4987116;28;20030;-53
2022/05/09 13:30:16;;;;;;;3.55;1.60;;;25.70;97.20;;;;;;4987106;28;20041;-44